• Join FlightAware (Why Join?)
  • Login
  • US Flag 
05:19PM EST


 

Airport Tracker/Info


-or-


 

Live Flight TrackerFlight Track Log ✈ CSN6763 ✈ 06-Aug-2013 ✈ ZHLY / LYA - ZBOW / BAV

Flight Track Log - Related Links

Times and Time Zones

All times are in EDT time to prevent confusion due to time zone crossing. See the CSN6763 flight status page for this flight to view local times or setup timezone preferences in your user account.

Time Position Orientation Groundspeed Altitude Reporting Facility
EDT Latitude Longitude Course Direction KTS MPH feet Rate Location/Type
12:07AM 34.8579 112.3440 343° North  Level Estimated
12:08AM 34.9746 112.2995 343° North  Level Estimated
12:09AM 35.0914 112.2550 343° North  Level Estimated
12:10AM 35.2081 112.2103 343° North  Level Estimated
12:11AM 35.3248 112.1654 343° North  Level Estimated
12:12AM 35.4415 112.1204 343° North  Level Estimated
12:13AM 35.5582 112.0753 343° North  Level Estimated
12:14AM 35.6748 112.0301 343° North  Level Estimated
12:15AM 35.7914 111.9847 342° North  Level Estimated
12:16AM 35.9081 111.9392 342° North  Level Estimated
12:17AM 36.0247 111.8936 342° North  Level Estimated
12:18AM 36.1413 111.8478 342° North  Level Estimated
12:19AM 36.2578 111.8019 342° North  Level Estimated
12:20AM 36.3744 111.7559 342° North  Level Estimated
12:21AM 36.4909 111.7097 342° North  Level Estimated
12:22AM 36.6074 111.6634 342° North  Level Estimated
12:23AM 36.7239 111.6169 342° North  Level Estimated
12:24AM 36.8404 111.5703 342° North  Level Estimated
12:25AM 36.9568 111.5236 342° North  Level Estimated
12:26AM 37.0733 111.4767 342° North  Level Estimated
12:27AM 37.1897 111.4297 342° North  Level Estimated
12:28AM 37.3061 111.3825 342° North  Level Estimated
12:29AM 37.4225 111.3352 342° North  Level Estimated
12:30AM 37.5389 111.2877 342° North  Level Estimated
12:31AM 37.6552 111.2401 342° North  Level Estimated
12:32AM 37.7715 111.1923 342° North  Level Estimated
12:33AM 37.8879 111.1444 342° North  Level Estimated
12:34AM 38.0042 111.0963 342° North  Level Estimated
12:35AM 38.1204 111.0481 342° North  Level Estimated
12:36AM 38.2367 110.9997 342° North  Level Estimated
12:37AM 38.3529 110.9512 342° North  Level Estimated
12:38AM 38.4691 110.9025 342° North  Level Estimated
12:39AM 38.5853 110.8537 342° North  Level Estimated
12:40AM 38.7015 110.8047 342° North  Level Estimated
12:41AM 38.8176 110.7555 342° North  Level Estimated
12:42AM 38.9338 110.7062 342° North  Level Estimated
12:43AM 39.0499 110.6567 342° North  Level Estimated
12:44AM 39.1660 110.6071 342° North  Level Estimated
12:45AM 39.2820 110.5573 342° North  Level Estimated
12:46AM 39.3981 110.5073 342° North  Level Estimated
12:47AM 39.5141 110.4571 342° North  Level Estimated
12:48AM 39.6301 110.4068 342° North  Level Estimated
12:49AM 39.7461 110.3563 341° North  Level Estimated
12:50AM 39.8620 110.3057 341° North  Level Estimated
12:51AM 39.9780 110.2549 341° North  Level Estimated
12:52AM 40.0939 110.2039 341° North  Level Estimated
12:53AM 40.2098 110.1527 341° North  Level Estimated
12:54AM 40.3256 110.1014 341° North  Level Estimated
12:55AM 40.4415 110.0499 341° North  Level Estimated
12:56AM 40.5573 109.9982 341° North  Level Estimated
12:57AM 40.5600 109.9969 341° North  Level Estimated
12:58AM 40.5600 109.9969 108° East  Level Estimated
12:59AM 40.5600 109.9969 108° East  Level Estimated
01:00AM 40.5600 109.9969 108° East  Level Estimated
01:01AM 40.5600 109.9969 108° East  Level Estimated
01:02AM 40.5600 109.9969 108° East  Level Estimated
01:03AM 40.5600 109.9969 108° East  Level Estimated
01:04AM 40.5600 109.9969 108° East  Level Estimated
01:05AM 40.5600 109.9969 108° East  Level Estimated
01:06AM 40.5600 109.9969 108° East  Level Estimated
01:07AM 40.5600 109.9969 108° East  Level Estimated
01:08AM 40.5600 109.9969 108° East  Level Estimated
01:09AM 40.5600 109.9969 108° East  Level Estimated
01:10AM 40.5600 109.9969 108° East  Level Estimated
01:11AM 40.5600 109.9969 108° East  Level Estimated
01:12AM 40.5600 109.9969 108° East  Level Estimated